Startpagina
METAR-TAF:

METAR-TAF

Vliegvelden :

Internationale Luchthaven van Peking

Peking, China

breedte: 39-56N, lengte: 116-17E, hoogte: 55 m

Actueel weer

Dit bericht is 21 minuten geleden gemaakt, om 17:30 UTC
Wind 6 kt uit het zuidzuidoosten
Temperatuur 25°C
Vochtigheid 94%
Druk 1005 hPa
Zicht 10 km of meer
geen wolken onder 1500 m en geen cumulonimbus

METAR: ZBAA 181730Z 15003MPS CAVOK 25/24 Q1005 NOSIG

Tijdstip: 01:51 (17:51 UTC)

Verwachting

Dit bericht is 2 uur en het 21 minuten geleden gemaakt, om 15:30 UTC
Verwachting geldig van 18 om 18 UTC tot 19 om 18 UTC
Wind 8 kt uit het oostzuidoosten
Zicht: 3500 m
nevel
Tijdelijke
van 18 om 18 UTC tot 18 om 24 UTC
Weinig wolken op 4000 ft, Cumulonimbus.
onweer, lichte regen
Tijdelijke
van 19 om 06 UTC tot 19 om 12 UTC
Weinig wolken op 4000 ft, Cumulonimbus.
onweer, lichte regen

TAF: ZBAA 181530Z 1818/1918 12004MPS 3500 BR NSC TX33/1906Z TN26/1821Z TEMPO 1818/1824 -TSRA FEW040CB TEMPO 1906/1912 -TSRA FEW040CB

Waarnemingen en weersverwachtingen van meer dan 4000 vliegvelden (METAR en TAF).

De beschikbare stations zijn de gele en rode punten op de kaart.

Ga met uw muis naar het station om de naam te zien.

Klik dan om waarnemingen en weersverwachtingen te zien.

kaart wijzigen: klik op de groene knoppen met een zwart kruis om in te zoomen, op de groene knop met een streepje om uit te zoomen of op de groene pijlen voor aangrenzende kaarten.


METAR-TAF: